createdAt,value
2018-02-14T00:00:36.456Z,-1.30
2018-02-14T00:03:04.062Z,-1.32
2018-02-14T00:05:31.728Z,-1.24
2018-02-14T00:07:59.305Z,-1.23
2018-02-14T00:10:26.890Z,-1.23
2018-02-14T00:12:54.482Z,-1.24
2018-02-14T00:15:22.122Z,-1.21
2018-02-14T00:17:49.715Z,-1.25
2018-02-14T00:20:17.298Z,-1.22
2018-02-14T00:22:44.866Z,-1.13
2018-02-14T00:25:12.619Z,-1.03
2018-02-14T00:27:40.187Z,-0.99
2018-02-14T00:30:07.768Z,-0.82
2018-02-14T00:32:35.469Z,-0.81
2018-02-14T00:35:03.009Z,-0.81
2018-02-14T00:37:30.605Z,-0.81
2018-02-14T00:39:58.168Z,-0.83
2018-02-14T00:42:25.737Z,-0.86
2018-02-14T00:44:55.020Z,-0.87
2018-02-14T00:47:23.043Z,-0.87
2018-02-14T00:49:50.642Z,-0.94
2018-02-14T00:52:18.229Z,-0.98
2018-02-14T00:54:45.937Z,-0.95
2018-02-14T00:57:13.620Z,-0.86
2018-02-14T00:59:41.168Z,-0.85
2018-02-14T01:02:08.776Z,-0.86
2018-02-14T01:04:36.354Z,-0.95
2018-02-14T01:07:04.018Z,-0.98
2018-02-14T01:09:31.678Z,-1.01
2018-02-14T01:11:59.261Z,-1.07
2018-02-14T01:14:26.833Z,-1.03
2018-02-14T01:16:54.423Z,-0.97
2018-02-14T01:19:22.007Z,-0.92
2018-02-14T01:21:50.523Z,-0.96
2018-02-14T01:24:18.280Z,-1.00
2018-02-14T01:26:45.855Z,-1.04
2018-02-14T01:29:13.675Z,-1.07
2018-02-14T01:31:41.315Z,-1.08
2018-02-14T01:34:08.904Z,-1.10
2018-02-14T01:36:36.462Z,-1.06
2018-02-14T01:39:04.109Z,-1.02
2018-02-14T01:41:31.706Z,-0.96
2018-02-14T01:43:59.300Z,-1.04
2018-02-14T01:46:26.877Z,-1.11
2018-02-14T01:48:54.478Z,-1.06
2018-02-14T01:51:22.055Z,-1.04
2018-02-14T01:53:49.671Z,-1.02
2018-02-14T01:56:17.260Z,-1.02
2018-02-14T01:58:44.821Z,-1.07
2018-02-14T02:01:12.379Z,-1.09
2018-02-14T02:03:40.035Z,-1.03
2018-02-14T02:06:07.610Z,-0.87
2018-02-14T02:08:35.230Z,-0.86
2018-02-14T02:11:02.855Z,-0.79
2018-02-14T02:13:30.454Z,-0.73
2018-02-14T02:15:58.023Z,-0.74
2018-02-14T02:18:25.633Z,-0.68
2018-02-14T02:20:53.215Z,-0.57
2018-02-14T02:23:20.809Z,-0.56
2018-02-14T02:25:48.403Z,-0.67
2018-02-14T02:28:15.966Z,-0.57
2018-02-14T02:30:43.569Z,-0.76
2018-02-14T02:33:11.577Z,-0.85
2018-02-14T02:35:39.127Z,-0.87
2018-02-14T02:38:06.867Z,-0.90
2018-02-14T02:40:34.522Z,-0.94
2018-02-14T02:43:02.097Z,-0.69
2018-02-14T02:45:29.693Z,-0.58
2018-02-14T02:47:57.258Z,-0.77
2018-02-14T02:50:24.822Z,-0.77
2018-02-14T02:52:52.422Z,-0.59
2018-02-14T02:55:25.882Z,-0.67
2018-02-14T02:57:53.951Z,-0.57
2018-02-14T03:00:21.519Z,-0.60
2018-02-14T03:02:49.093Z,-0.58
2018-02-14T03:05:16.683Z,-0.52
2018-02-14T03:07:44.274Z,-0.49
2018-02-14T03:10:11.855Z,-0.42
2018-02-14T03:12:39.548Z,-0.68
2018-02-14T03:15:07.156Z,-0.76
2018-02-14T03:17:34.761Z,-0.82
2018-02-14T03:20:02.548Z,-0.82
2018-02-14T03:22:30.137Z,-0.86
2018-02-14T03:24:57.822Z,-0.78
2018-02-14T03:27:25.389Z,-0.75
2018-02-14T03:29:53.002Z,-0.81
2018-02-14T03:32:20.580Z,-0.72
2018-02-14T03:34:48.179Z,-0.74
2018-02-14T03:37:17.054Z,-0.58
2018-02-14T03:39:44.604Z,-0.56
2018-02-14T03:42:12.169Z,-0.56
2018-02-14T03:44:39.767Z,-0.51
2018-02-14T03:47:07.376Z,-0.61
2018-02-14T03:49:34.975Z,-0.63
2018-02-14T03:52:02.588Z,-0.67
2018-02-14T03:54:30.186Z,-0.62
2018-02-14T03:56:57.757Z,-0.60
2018-02-14T03:59:25.570Z,-0.63
2018-02-14T04:01:53.153Z,-0.59
2018-02-14T04:04:20.735Z,-0.56
2018-02-14T04:06:48.301Z,-0.57
2018-02-14T04:09:15.880Z,-0.62
2018-02-14T04:11:43.454Z,-0.66
2018-02-14T04:14:11.025Z,-0.62
2018-02-14T04:16:38.595Z,-0.62
2018-02-14T04:19:06.214Z,-0.63
2018-02-14T04:21:33.775Z,-0.57
2018-02-14T04:24:01.378Z,-0.60
2018-02-14T04:26:28.971Z,-0.50
2018-02-14T04:28:56.570Z,-0.54
2018-02-14T04:31:24.388Z,-0.49
2018-02-14T04:33:51.954Z,-0.47
2018-02-14T04:36:19.558Z,-0.43
2018-02-14T04:38:47.267Z,-0.41
2018-02-14T04:41:14.840Z,-0.47
2018-02-14T04:43:44.208Z,-0.45
2018-02-14T04:46:11.793Z,-0.39
2018-02-14T04:48:39.522Z,-0.42
2018-02-14T04:51:07.155Z,-0.44
2018-02-14T04:53:34.810Z,-0.43
2018-02-14T04:56:02.379Z,-0.49
2018-02-14T04:58:29.958Z,-0.59
2018-02-14T05:00:57.641Z,-0.66
2018-02-14T05:03:25.234Z,-0.65
2018-02-14T05:08:43.195Z,-0.64
2018-02-14T05:11:11.435Z,-0.63
2018-02-14T05:13:39.008Z,-0.58
2018-02-14T05:16:06.578Z,-0.47
2018-02-14T05:18:34.135Z,-0.39
2018-02-14T05:21:01.733Z,-0.33
2018-02-14T05:23:29.870Z,-0.27
2018-02-14T05:25:57.456Z,-0.26
2018-02-14T05:28:25.014Z,-0.30
2018-02-14T05:30:52.640Z,-0.27
2018-02-14T05:33:20.191Z,-0.26
2018-02-14T05:35:47.769Z,-0.29
2018-02-14T05:38:15.493Z,-0.33
2018-02-14T05:40:43.060Z,-0.43
2018-02-14T05:43:11.018Z,-0.37
2018-02-14T05:45:38.918Z,-0.39
2018-02-14T05:48:06.517Z,-0.41
2018-02-14T05:50:34.081Z,-0.35
2018-02-14T05:53:01.675Z,-0.26
2018-02-14T05:55:29.264Z,-0.25
2018-02-14T05:57:56.829Z,-0.34
2018-02-14T06:00:24.400Z,-0.41
2018-02-14T06:02:52.044Z,-0.40
2018-02-14T06:05:19.854Z,-0.32
2018-02-14T06:07:47.423Z,-0.34
2018-02-14T06:10:14.992Z,-0.33
2018-02-14T06:12:42.556Z,-0.50
2018-02-14T06:15:10.566Z,-0.56
2018-02-14T06:17:38.184Z,-0.50
2018-02-14T06:20:05.769Z,-0.41
2018-02-14T06:22:33.353Z,-0.34
2018-02-14T06:25:00.961Z,-0.36
2018-02-14T06:27:29.038Z,-0.36
2018-02-14T06:29:56.643Z,-0.46
2018-02-14T06:32:25.496Z,-0.38
2018-02-14T06:34:53.074Z,-0.36
2018-02-14T06:37:20.806Z,-0.34
2018-02-14T06:39:48.418Z,-0.38
2018-02-14T06:42:15.987Z,-0.37
2018-02-14T06:44:43.568Z,-0.27
2018-02-14T06:47:11.415Z,-0.41
2018-02-14T06:49:38.990Z,-0.15
2018-02-14T06:52:06.563Z,-0.13
2018-02-14T06:54:34.148Z,-0.14
2018-02-14T06:57:01.738Z,-0.16
2018-02-14T06:59:29.332Z,-0.10
2018-02-14T07:01:56.935Z,-0.25
2018-02-14T07:04:25.213Z,-0.32
2018-02-14T07:06:54.325Z,-0.44
2018-02-14T07:09:22.355Z,-0.38
2018-02-14T07:11:51.220Z,-0.34
2018-02-14T07:14:18.775Z,-0.18
2018-02-14T07:16:46.347Z,-0.28
2018-02-14T07:19:14.162Z,-0.34
2018-02-14T07:21:42.768Z,-0.43
2018-02-14T07:24:10.392Z,-0.51
2018-02-14T07:26:38.812Z,-0.38
2018-02-14T07:29:06.590Z,-0.29
2018-02-14T07:31:34.151Z,-0.23
2018-02-14T07:34:02.114Z,-0.14
2018-02-14T07:36:29.750Z,-0.22
2018-02-14T07:38:58.788Z,-0.20
2018-02-14T07:41:26.486Z,-0.16
2018-02-14T07:43:55.102Z,-0.16
2018-02-14T07:46:22.688Z,-0.29
2018-02-14T07:48:50.256Z,-0.31
2018-02-14T07:51:19.782Z,-0.30
2018-02-14T07:53:47.540Z,-0.43
2018-02-14T07:56:15.270Z,-0.26
2018-02-14T07:58:42.826Z,-0.16
2018-02-14T08:01:10.393Z,0.07
2018-02-14T08:03:37.964Z,0.22
2018-02-14T08:06:05.512Z,0.03
2018-02-14T08:08:33.097Z,0.14
2018-02-14T08:11:00.880Z,0.24
2018-02-14T08:13:28.494Z,0.11
2018-02-14T08:15:56.073Z,0.08
2018-02-14T08:18:24.426Z,0.06
2018-02-14T08:20:52.023Z,-0.01
2018-02-14T08:23:19.604Z,0.18
2018-02-14T08:25:47.223Z,0.31
2018-02-14T08:28:14.788Z,0.40
2018-02-14T08:30:42.365Z,0.63
2018-02-14T08:33:10.553Z,0.73
2018-02-14T08:35:39.284Z,0.88
2018-02-14T08:38:06.843Z,1.00
2018-02-14T08:40:34.395Z,1.00
2018-02-14T08:43:01.997Z,1.25
2018-02-14T08:45:29.546Z,1.44
2018-02-14T08:47:57.122Z,1.48
2018-02-14T08:50:24.828Z,1.52
2018-02-14T08:52:52.376Z,1.82
2018-02-14T08:55:19.974Z,2.04
2018-02-14T08:57:47.534Z,2.21
2018-02-14T09:00:15.127Z,2.03
2018-02-14T09:02:42.705Z,1.96
2018-02-14T09:05:10.668Z,1.94
2018-02-14T09:07:38.252Z,2.34
2018-02-14T09:10:05.830Z,2.52
2018-02-14T09:12:33.376Z,2.15
2018-02-14T09:15:00.917Z,2.63
2018-02-14T09:17:28.799Z,2.88
2018-02-14T09:19:56.442Z,2.88
2018-02-14T09:22:24.702Z,2.67
2018-02-14T09:24:52.270Z,2.55
2018-02-14T09:27:19.839Z,2.65
2018-02-14T09:29:47.462Z,2.60
2018-02-14T09:32:15.098Z,2.38
2018-02-14T09:34:42.677Z,2.31
2018-02-14T09:37:10.969Z,2.47
2018-02-14T09:39:38.620Z,2.33
2018-02-14T09:42:06.181Z,2.41
2018-02-14T09:44:33.733Z,2.46
2018-02-14T09:47:01.335Z,2.44
2018-02-14T09:49:30.150Z,2.17
2018-02-14T09:51:57.728Z,2.60
2018-02-14T09:54:25.440Z,2.25
2018-02-14T09:56:53.057Z,2.50
2018-02-14T09:59:21.164Z,2.23
2018-02-14T10:01:48.900Z,2.17
2018-02-14T10:04:16.451Z,2.37
2018-02-14T10:06:44.005Z,2.59
2018-02-14T10:09:11.865Z,2.66
2018-02-14T10:11:39.835Z,2.45
2018-02-14T10:14:07.448Z,2.39
2018-02-14T10:16:35.135Z,2.15
2018-02-14T10:19:02.703Z,1.88
2018-02-14T10:21:30.718Z,1.93
2018-02-14T10:23:58.299Z,2.28
2018-02-14T10:26:26.341Z,2.33
2018-02-14T10:28:53.925Z,2.72
2018-02-14T10:31:21.542Z,2.71
2018-02-14T10:33:49.128Z,2.97
2018-02-14T10:36:16.703Z,2.78
2018-02-14T10:38:44.269Z,2.87
2018-02-14T10:41:12.164Z,3.30
2018-02-14T10:43:39.781Z,3.20
2018-02-14T10:46:07.336Z,3.19
2018-02-14T10:48:34.907Z,3.11
2018-02-14T10:51:02.537Z,2.98
2018-02-14T10:53:30.691Z,2.80
2018-02-14T10:55:58.264Z,2.73
2018-02-14T10:58:25.834Z,2.59
2018-02-14T11:00:58.957Z,2.33
2018-02-14T11:03:32.919Z,2.27
2018-02-14T11:06:06.613Z,1.69
2018-02-14T11:08:34.325Z,1.37
2018-02-14T11:11:01.893Z,1.07
2018-02-14T11:13:29.474Z,0.86
2018-02-14T11:15:57.451Z,0.70
2018-02-14T11:18:25.090Z,0.86
2018-02-14T11:20:52.709Z,1.04
2018-02-14T11:23:20.308Z,1.17
2018-02-14T11:25:47.861Z,1.52
2018-02-14T11:28:15.439Z,1.95
2018-02-14T11:30:43.967Z,2.22
2018-02-14T11:33:13.627Z,2.34
2018-02-14T11:35:41.238Z,2.24
2018-02-14T11:38:08.805Z,2.07
2018-02-14T11:40:36.370Z,2.41
2018-02-14T11:43:03.958Z,2.66
2018-02-14T11:45:31.527Z,2.83
2018-02-14T11:47:59.166Z,2.49
2018-02-14T11:50:26.787Z,2.13
2018-02-14T11:52:54.383Z,1.68
2018-02-14T11:55:21.946Z,1.55
2018-02-14T11:57:49.572Z,1.35
2018-02-14T12:00:17.160Z,1.42
2018-02-14T12:02:44.708Z,1.41
2018-02-14T12:05:12.738Z,1.26
2018-02-14T12:07:40.377Z,1.12
2018-02-14T12:10:07.949Z,0.93
2018-02-14T12:12:35.565Z,0.82
2018-02-14T12:15:03.218Z,0.95
2018-02-14T12:17:30.794Z,1.05
2018-02-14T12:19:58.387Z,1.14
2018-02-14T12:22:26.400Z,1.26
2018-02-14T12:24:53.959Z,1.32
2018-02-14T12:27:21.681Z,1.34
2018-02-14T12:29:49.269Z,1.37
2018-02-14T12:32:16.861Z,1.33
2018-02-14T12:34:44.444Z,1.17
2018-02-14T12:37:12.808Z,1.21
2018-02-14T12:39:40.383Z,1.21
2018-02-14T12:42:07.999Z,1.17
2018-02-14T12:44:35.576Z,1.34
2018-02-14T12:47:03.200Z,1.22
2018-02-14T12:49:30.796Z,1.40
2018-02-14T12:51:58.399Z,1.36
2018-02-14T12:54:25.986Z,1.59
2018-02-14T12:56:53.551Z,1.37
2018-02-14T12:59:21.152Z,1.34
2018-02-14T13:01:48.780Z,1.38
2018-02-14T13:04:16.369Z,1.45
2018-02-14T13:06:43.977Z,1.44
2018-02-14T13:09:11.945Z,1.41
2018-02-14T13:11:39.697Z,1.34
2018-02-14T13:14:07.295Z,1.30
2018-02-14T13:16:34.857Z,1.24
2018-02-14T13:19:02.459Z,1.26
2018-02-14T13:21:30.570Z,1.23
2018-02-14T13:23:58.169Z,1.25
2018-02-14T13:26:25.769Z,1.24
2018-02-14T13:28:53.399Z,1.26
2018-02-14T13:31:21.000Z,1.28
2018-02-14T13:33:48.581Z,1.23
2018-02-14T13:36:16.154Z,1.31
2018-02-14T13:38:43.733Z,1.22
2018-02-14T13:41:11.739Z,1.28
2018-02-14T13:43:39.324Z,1.31
2018-02-14T13:46:06.909Z,1.24
2018-02-14T13:48:34.484Z,1.17
2018-02-14T13:51:02.059Z,1.19
2018-02-14T13:53:29.674Z,1.21
2018-02-14T13:55:58.458Z,1.39
2018-02-14T13:58:26.117Z,1.56
2018-02-14T14:00:53.712Z,1.55
2018-02-14T14:03:21.278Z,1.57
2018-02-14T14:05:48.862Z,1.46
2018-02-14T14:08:16.483Z,1.41
2018-02-14T14:10:44.052Z,1.43
2018-02-14T14:13:12.086Z,1.45
2018-02-14T14:15:39.676Z,1.47
2018-02-14T14:18:07.344Z,1.52
2018-02-14T14:20:34.957Z,1.60
2018-02-14T14:23:02.563Z,1.48
2018-02-14T14:25:30.136Z,1.32
2018-02-14T14:27:57.730Z,1.27
2018-02-14T14:30:25.389Z,1.20
2018-02-14T14:32:53.861Z,1.08
2018-02-14T14:35:21.492Z,1.01
2018-02-14T14:37:49.105Z,0.95
2018-02-14T14:40:16.706Z,0.87
2018-02-14T14:42:44.317Z,0.88
2018-02-14T14:45:12.225Z,0.85
2018-02-14T14:47:39.844Z,1.01
2018-02-14T14:50:07.444Z,0.85
2018-02-14T14:52:35.019Z,0.91
2018-02-14T14:55:02.638Z,1.01
2018-02-14T14:57:30.218Z,0.79
2018-02-14T14:59:57.782Z,0.67
2018-02-14T15:02:25.378Z,0.82
2018-02-14T15:04:53.351Z,0.87
2018-02-14T15:07:20.986Z,0.80
2018-02-14T15:09:48.608Z,0.81
2018-02-14T15:12:16.232Z,0.70
2018-02-14T15:14:43.831Z,0.68
2018-02-14T15:17:12.724Z,0.74
2018-02-14T15:19:40.936Z,0.73
2018-02-14T15:22:08.627Z,0.60
2018-02-14T15:24:36.208Z,0.46
2018-02-14T15:27:04.273Z,0.37
2018-02-14T15:29:31.832Z,0.34
2018-02-14T15:31:59.416Z,0.40
2018-02-14T15:34:27.314Z,0.43
2018-02-14T15:36:54.902Z,0.43
2018-02-14T15:39:23.375Z,0.39
2018-02-14T15:41:51.030Z,0.40
2018-02-14T15:44:18.627Z,0.34
2018-02-14T15:46:46.230Z,0.11
2018-02-14T15:49:14.862Z,-0.07
2018-02-14T15:51:43.045Z,-0.17
2018-02-14T15:54:10.609Z,-0.36
2018-02-14T15:56:38.233Z,-0.51
2018-02-14T15:59:05.854Z,-0.66
2018-02-14T16:01:33.450Z,-0.73
2018-02-14T16:04:01.044Z,-0.77
2018-02-14T16:06:28.638Z,-0.84
2018-02-14T16:08:56.316Z,-0.86
2018-02-14T16:11:24.035Z,-0.89
2018-02-14T16:13:51.625Z,-0.93
2018-02-14T16:16:19.183Z,-0.89
2018-02-14T16:18:46.765Z,-0.86
2018-02-14T16:21:14.577Z,-0.90
2018-02-14T16:23:42.249Z,-0.91
2018-02-14T16:26:09.866Z,-0.88
2018-02-14T16:28:37.449Z,-0.82
2018-02-14T16:31:05.089Z,-0.86
2018-02-14T16:33:34.442Z,-0.81
2018-02-14T16:36:02.161Z,-0.85
2018-02-14T16:38:31.722Z,-0.85
2018-02-14T16:40:59.353Z,-0.83
2018-02-14T16:43:40.382Z,-0.89
2018-02-14T16:46:07.988Z,-0.91
2018-02-14T16:48:35.571Z,-0.89
2018-02-14T16:51:03.189Z,-0.97
2018-02-14T16:53:31.531Z,-1.06
2018-02-14T16:55:59.161Z,-1.09
2018-02-14T16:58:26.756Z,-1.12
2018-02-14T17:00:54.316Z,-1.18
2018-02-14T17:03:22.422Z,-1.20
2018-02-14T17:05:50.025Z,-1.22
2018-02-14T17:08:19.945Z,-1.28
2018-02-14T17:10:47.557Z,-1.32
2018-02-14T17:13:15.523Z,-1.34
2018-02-14T17:15:43.130Z,-1.39
2018-02-14T17:18:10.729Z,-1.47
2018-02-14T17:20:38.311Z,-1.51
2018-02-14T17:23:06.226Z,-1.56
2018-02-14T17:25:33.848Z,-1.59
2018-02-14T17:28:01.437Z,-1.59
2018-02-14T17:30:29.073Z,-1.59
2018-02-14T17:32:56.800Z,-1.64
2018-02-14T17:35:24.518Z,-1.73
2018-02-14T17:37:52.255Z,-1.83
2018-02-14T17:40:19.964Z,-1.76
2018-02-14T17:42:47.543Z,-1.81
2018-02-14T17:45:15.366Z,-1.92
2018-02-14T17:47:43.036Z,-2.04
2018-02-14T17:50:10.765Z,-2.17
2018-02-14T17:52:38.322Z,-2.28
2018-02-14T17:55:06.436Z,-2.41
2018-02-14T17:57:34.117Z,-2.49
2018-02-14T18:00:01.713Z,-2.59
2018-02-14T18:02:29.389Z,-2.71
2018-02-14T18:04:58.193Z,-2.81
2018-02-14T18:07:26.035Z,-2.91
2018-02-14T18:09:53.620Z,-2.99
2018-02-14T18:12:21.343Z,-3.03
2018-02-14T18:14:48.953Z,-3.09
2018-02-14T18:17:16.744Z,-3.14
2018-02-14T18:19:44.409Z,-3.17
2018-02-14T18:22:12.032Z,-3.22
2018-02-14T18:24:39.621Z,-3.28
2018-02-14T18:27:12.808Z,-3.36
2018-02-14T18:29:40.377Z,-3.31
2018-02-14T18:32:07.989Z,-3.33
2018-02-14T18:34:35.595Z,-3.41
2018-02-14T18:37:03.144Z,-3.47
2018-02-14T18:39:30.901Z,-3.48
2018-02-14T18:41:58.486Z,-3.47
2018-02-14T18:44:26.089Z,-3.48
2018-02-14T18:46:53.672Z,-3.50
2018-02-14T18:49:22.378Z,-3.52
2018-02-14T18:51:50.261Z,-3.55
2018-02-14T18:54:17.850Z,-3.54
2018-02-14T18:56:45.424Z,-3.55
2018-02-14T18:59:13.442Z,-3.62
2018-02-14T19:01:41.438Z,-3.62
2018-02-14T19:04:09.241Z,-3.59
2018-02-14T19:06:36.842Z,-3.58
2018-02-14T19:09:05.029Z,-3.59
2018-02-14T19:11:35.176Z,-3.60
2018-02-14T19:14:02.800Z,-3.64
2018-02-14T19:16:32.133Z,-3.69
2018-02-14T19:19:00.407Z,-3.73
2018-02-14T19:21:28.502Z,-3.78
2018-02-14T19:23:56.201Z,-3.83
2018-02-14T19:26:23.905Z,-3.83
2018-02-14T19:28:52.676Z,-3.85
2018-02-14T19:31:20.570Z,-3.88
2018-02-14T19:33:48.385Z,-3.88
2018-02-14T19:36:16.086Z,-3.91
2018-02-14T19:38:43.667Z,-3.95
2018-02-14T19:41:11.693Z,-3.96
2018-02-14T19:43:40.371Z,-3.98
2018-02-14T19:46:07.964Z,-4.02
2018-02-14T19:48:35.540Z,-4.06
2018-02-14T19:51:05.830Z,-4.09
2018-02-14T19:53:33.482Z,-4.13
2018-02-14T19:56:01.068Z,-4.16
2018-02-14T19:58:28.748Z,-4.20
2018-02-14T20:00:56.401Z,-4.24
2018-02-14T20:03:24.823Z,-4.26
2018-02-14T20:05:53.622Z,-4.27
2018-02-14T20:08:23.003Z,-4.29
2018-02-14T20:10:51.094Z,-4.24
2018-02-14T20:13:19.429Z,-4.24
2018-02-14T20:15:47.825Z,-4.18
2018-02-14T20:18:15.653Z,-4.16
2018-02-14T20:20:43.229Z,-4.17
2018-02-14T20:23:12.261Z,-4.17
2018-02-14T20:25:40.951Z,-4.12
2018-02-14T20:28:08.589Z,-4.10
2018-02-14T20:30:36.173Z,-4.13
2018-02-14T20:33:03.825Z,-4.16
2018-02-14T20:35:33.707Z,-4.13
2018-02-14T20:38:01.369Z,-4.10
2018-02-14T20:40:29.329Z,-4.08
2018-02-14T20:42:57.030Z,-4.08
2018-02-14T20:45:24.739Z,-4.10
2018-02-14T20:47:52.354Z,-4.09
2018-02-14T20:50:19.993Z,-4.06
2018-02-14T20:52:47.651Z,-4.08
2018-02-14T20:55:15.819Z,-4.11
2018-02-14T20:57:43.811Z,-4.08
2018-02-14T21:00:11.428Z,-4.07
2018-02-14T21:02:39.026Z,-4.06
2018-02-14T21:05:07.048Z,-4.08
2018-02-14T21:07:35.562Z,-4.10
2018-02-14T21:10:03.217Z,-4.09
2018-02-14T21:12:30.781Z,-4.06
2018-02-14T21:14:58.350Z,-3.95
2018-02-14T21:20:41.729Z,-3.64
2018-02-14T21:23:09.677Z,-3.58
2018-02-14T21:25:37.664Z,-3.52
2018-02-14T21:28:05.660Z,-3.50
2018-02-14T21:30:33.232Z,-3.54
2018-02-14T21:33:00.896Z,-3.55
2018-02-14T21:35:28.792Z,-3.60
2018-02-14T21:37:56.460Z,-3.85
2018-02-14T21:40:25.271Z,-4.01
2018-02-14T21:42:54.633Z,-3.97
2018-02-14T21:45:22.565Z,-3.86
2018-02-14T21:47:50.200Z,-3.77
2018-02-14T21:50:17.975Z,-3.76
2018-02-14T21:52:45.583Z,-3.74
2018-02-14T21:55:13.303Z,-3.75
2018-02-14T21:57:41.072Z,-3.75
2018-02-14T22:00:08.700Z,-3.74
2018-02-14T22:02:36.286Z,-3.69
2018-02-14T22:05:03.900Z,-3.73
2018-02-14T22:07:31.598Z,-3.77
2018-02-14T22:09:59.197Z,-3.88
2018-02-14T22:12:26.784Z,-3.94
2018-02-14T22:14:54.429Z,-3.95
2018-02-14T22:17:22.044Z,-4.06
2018-02-14T22:19:49.672Z,-4.15
2018-02-14T22:22:17.246Z,-4.20
2018-02-14T22:24:44.872Z,-4.04
2018-02-14T22:27:12.781Z,-4.13
2018-02-14T22:29:40.501Z,-4.27
2018-02-14T22:32:08.180Z,-4.31
2018-02-14T22:34:35.768Z,-4.38
2018-02-14T22:37:04.111Z,-4.40
2018-02-14T22:39:31.943Z,-4.43
2018-02-14T22:41:59.536Z,-4.44
2018-02-14T22:44:27.129Z,-4.46
2018-02-14T22:46:54.699Z,-4.46
2018-02-14T22:49:22.317Z,-4.46
2018-02-14T22:51:49.913Z,-4.48
2018-02-14T22:54:17.722Z,-4.50
2018-02-14T22:56:45.286Z,-4.51
2018-02-14T22:59:13.352Z,-4.58
2018-02-14T23:01:42.021Z,-4.61
2018-02-14T23:04:12.923Z,-4.57
2018-02-14T23:06:43.190Z,-4.54
2018-02-14T23:09:12.101Z,-4.56
2018-02-14T23:11:41.725Z,-4.54
2018-02-14T23:14:10.241Z,-4.48
2018-02-14T23:16:37.866Z,-4.45
2018-02-14T23:19:05.567Z,-4.41
2018-02-14T23:21:34.335Z,-4.31
2018-02-14T23:24:01.992Z,-4.29
2018-02-14T23:26:31.944Z,-4.27
2018-02-14T23:28:59.867Z,-4.27
2018-02-14T23:31:27.441Z,-4.33
2018-02-14T23:33:55.104Z,-4.28
2018-02-14T23:36:22.883Z,-4.34
2018-02-14T23:38:50.664Z,-4.40
2018-02-14T23:41:21.214Z,-4.36
2018-02-14T23:43:49.129Z,-4.42
2018-02-14T23:46:16.871Z,-4.55
2018-02-14T23:48:44.663Z,-4.68
2018-02-14T23:51:15.159Z,-4.79
2018-02-14T23:53:42.901Z,-4.93
2018-02-14T23:56:10.758Z,-5.02
2018-02-14T23:58:38.371Z,-5.08
